Terminal Aerodrome Forecast
Issued by NWS Mt. Holly, NJ

Home | Current Version | Previous Version | Text Only | Print | Product List | Glossary On
Versions: 1 2 3 4 5 6 7 8 9 10 11 12 13 14 15 16 17 18 19 20 21 22 23 24 25 26
000
FTUS41 KPHI 030542
TAFRDG
TAF
KRDG 030542Z 0306/0406 VRB03KT P6SM BKN200
     FM031200 VRB03KT P6SM BKN100
     FM031700 VRB03KT P6SM OVC045
     FM031900 17004KT 4SM -SN OVC025
     FM032000 16006KT 1SM -SNPL OVC008
     FM040000 18006KT 1SM -FZRAPL OVC005
     FM040400 19006KT 2SM RA BR OVC005 WS020/23040KT=

USA.gov is the U.S. government's official web portal to all federal, state and local government web resources and services.